sensor_id;sensor_type;location;lat;lon;timestamp;temperature;humidity
46676;DHT22;32412;51.478;5.694;2022-10-16T00:01:47;13.00;99.90
46676;DHT22;32412;51.478;5.694;2022-10-16T00:04:13;13.00;99.90
46676;DHT22;32412;51.478;5.694;2022-10-16T00:06:39;13.00;99.90
46676;DHT22;32412;51.478;5.694;2022-10-16T00:09:05;13.00;99.90
46676;DHT22;32412;51.478;5.694;2022-10-16T00:11:34;12.90;99.90
46676;DHT22;32412;51.478;5.694;2022-10-16T00:14:04;12.90;99.90
46676;DHT22;32412;51.478;5.694;2022-10-16T00:16:30;12.90;99.90
46676;DHT22;32412;51.478;5.694;2022-10-16T00:18:56;12.90;99.90
46676;DHT22;32412;51.478;5.694;2022-10-16T00:21:25;12.80;99.90
46676;DHT22;32412;51.478;5.694;2022-10-16T00:23:53;12.80;99.90
46676;DHT22;32412;51.478;5.694;2022-10-16T00:26:19;12.90;99.90
46676;DHT22;32412;51.478;5.694;2022-10-16T00:28:49;12.80;99.90
46676;DHT22;32412;51.478;5.694;2022-10-16T00:31:15;12.80;99.90
46676;DHT22;32412;51.478;5.694;2022-10-16T00:33:41;12.80;99.90
46676;DHT22;32412;51.478;5.694;2022-10-16T00:36:10;12.80;99.90
46676;DHT22;32412;51.478;5.694;2022-10-16T00:38:37;12.70;99.90
46676;DHT22;32412;51.478;5.694;2022-10-16T00:41:07;12.70;99.90
46676;DHT22;32412;51.478;5.694;2022-10-16T00:46:02;12.60;99.90
46676;DHT22;32412;51.478;5.694;2022-10-16T00:48:29;12.60;99.90
46676;DHT22;32412;51.478;5.694;2022-10-16T00:50:56;12.50;99.90
46676;DHT22;32412;51.478;5.694;2022-10-16T00:53:25;12.50;99.90
46676;DHT22;32412;51.478;5.694;2022-10-16T00:55:51;12.50;99.90
46676;DHT22;32412;51.478;5.694;2022-10-16T00:58:17;12.50;99.90
46676;DHT22;32412;51.478;5.694;2022-10-16T01:00:43;12.50;99.90
46676;DHT22;32412;51.478;5.694;2022-10-16T01:03:33;12.40;99.90
46676;DHT22;32412;51.478;5.694;2022-10-16T01:06:08;12.40;99.90
46676;DHT22;32412;51.478;5.694;2022-10-16T01:08:58;12.40;99.90
46676;DHT22;32412;51.478;5.694;2022-10-16T01:14:11;12.40;99.90
46676;DHT22;32412;51.478;5.694;2022-10-16T01:16:46;12.40;99.90
46676;DHT22;32412;51.478;5.694;2022-10-16T01:19:36;12.40;99.90
46676;DHT22;32412;51.478;5.694;2022-10-16T01:22:07;12.40;99.90
46676;DHT22;32412;51.478;5.694;2022-10-16T01:24:45;12.40;99.90
46676;DHT22;32412;51.478;5.694;2022-10-16T01:27:22;12.30;99.90
46676;DHT22;32412;51.478;5.694;2022-10-16T01:37:54;12.20;99.90
46676;DHT22;32412;51.478;5.694;2022-10-16T01:40:24;12.20;99.90
46676;DHT22;32412;51.478;5.694;2022-10-16T01:43:11;12.20;99.90
46676;DHT22;32412;51.478;5.694;2022-10-16T01:45:38;12.20;99.90
46676;DHT22;32412;51.478;5.694;2022-10-16T01:48:06;12.20;99.90
46676;DHT22;32412;51.478;5.694;2022-10-16T01:50:38;12.20;99.90
46676;DHT22;32412;51.478;5.694;2022-10-16T01:53:06;12.20;99.90
46676;DHT22;32412;51.478;5.694;2022-10-16T01:55:37;12.20;99.90
46676;DHT22;32412;51.478;5.694;2022-10-16T01:58:05;12.30;99.90
46676;DHT22;32412;51.478;5.694;2022-10-16T02:00:32;12.20;99.90
46676;DHT22;32412;51.478;5.694;2022-10-16T02:03:01;12.20;99.90
46676;DHT22;32412;51.478;5.694;2022-10-16T02:07:58;12.30;99.90
46676;DHT22;32412;51.478;5.694;2022-10-16T02:10:24;12.30;99.90
46676;DHT22;32412;51.478;5.694;2022-10-16T02:12:56;12.30;99.90
46676;DHT22;32412;51.478;5.694;2022-10-16T02:15:24;12.40;99.90
46676;DHT22;32412;51.478;5.694;2022-10-16T02:17:49;12.40;99.90
46676;DHT22;32412;51.478;5.694;2022-10-16T02:20:16;12.50;99.90
46676;DHT22;32412;51.478;5.694;2022-10-16T02:22:48;12.50;99.90
46676;DHT22;32412;51.478;5.694;2022-10-16T02:25:27;12.40;99.90
46676;DHT22;32412;51.478;5.694;2022-10-16T02:28:02;12.40;99.90
46676;DHT22;32412;51.478;5.694;2022-10-16T02:33:05;12.30;99.90
46676;DHT22;32412;51.478;5.694;2022-10-16T02:35:32;12.30;99.90
46676;DHT22;32412;51.478;5.694;2022-10-16T02:37:58;12.30;99.90
46676;DHT22;32412;51.478;5.694;2022-10-16T02:40:25;12.20;99.90
46676;DHT22;32412;51.478;5.694;2022-10-16T02:42:55;12.20;99.90
46676;DHT22;32412;51.478;5.694;2022-10-16T02:45:22;12.20;99.90
46676;DHT22;32412;51.478;5.694;2022-10-16T02:47:48;12.20;99.90
46676;DHT22;32412;51.478;5.694;2022-10-16T02:50:14;12.20;99.90
46676;DHT22;32412;51.478;5.694;2022-10-16T02:52:40;12.20;99.90
46676;DHT22;32412;51.478;5.694;2022-10-16T02:55:06;12.10;99.90
46676;DHT22;32412;51.478;5.694;2022-10-16T02:57:32;12.10;99.90
46676;DHT22;32412;51.478;5.694;2022-10-16T02:59:58;12.10;99.90
46676;DHT22;32412;51.478;5.694;2022-10-16T03:02:24;12.10;99.90
46676;DHT22;32412;51.478;5.694;2022-10-16T03:04:49;12.00;99.90
46676;DHT22;32412;51.478;5.694;2022-10-16T03:07:15;12.00;99.90
46676;DHT22;32412;51.478;5.694;2022-10-16T03:09:41;12.00;99.90
46676;DHT22;32412;51.478;5.694;2022-10-16T03:12:06;12.00;99.90
46676;DHT22;32412;51.478;5.694;2022-10-16T03:14:32;12.00;99.90
46676;DHT22;32412;51.478;5.694;2022-10-16T03:16:58;12.00;99.90
46676;DHT22;32412;51.478;5.694;2022-10-16T03:19:24;12.00;99.90
46676;DHT22;32412;51.478;5.694;2022-10-16T03:21:49;12.00;99.90
46676;DHT22;32412;51.478;5.694;2022-10-16T03:24:15;12.00;99.90
46676;DHT22;32412;51.478;5.694;2022-10-16T03:26:41;12.00;99.90
46676;DHT22;32412;51.478;5.694;2022-10-16T03:29:07;12.00;99.90
46676;DHT22;32412;51.478;5.694;2022-10-16T03:31:33;12.00;99.90
46676;DHT22;32412;51.478;5.694;2022-10-16T03:33:58;12.10;99.90
46676;DHT22;32412;51.478;5.694;2022-10-16T03:36:24;12.10;99.90
46676;DHT22;32412;51.478;5.694;2022-10-16T03:38:50;12.10;99.90
46676;DHT22;32412;51.478;5.694;2022-10-16T03:41:16;12.10;99.90
46676;DHT22;32412;51.478;5.694;2022-10-16T03:43:41;12.10;99.90
46676;DHT22;32412;51.478;5.694;2022-10-16T03:46:07;12.10;99.90
46676;DHT22;32412;51.478;5.694;2022-10-16T03:48:32;12.10;99.90
46676;DHT22;32412;51.478;5.694;2022-10-16T03:50:58;12.20;99.90
46676;DHT22;32412;51.478;5.694;2022-10-16T03:53:25;12.20;99.90
46676;DHT22;32412;51.478;5.694;2022-10-16T03:55:51;12.20;99.90
46676;DHT22;32412;51.478;5.694;2022-10-16T03:58:16;12.20;99.90
46676;DHT22;32412;51.478;5.694;2022-10-16T04:00:43;12.10;99.90
46676;DHT22;32412;51.478;5.694;2022-10-16T04:03:09;12.10;99.90
46676;DHT22;32412;51.478;5.694;2022-10-16T04:05:35;12.20;99.90
46676;DHT22;32412;51.478;5.694;2022-10-16T04:08:00;12.20;99.90
46676;DHT22;32412;51.478;5.694;2022-10-16T04:10:26;12.20;99.90
46676;DHT22;32412;51.478;5.694;2022-10-16T04:12:52;12.20;99.90
46676;DHT22;32412;51.478;5.694;2022-10-16T04:15:20;12.20;99.90
46676;DHT22;32412;51.478;5.694;2022-10-16T04:17:45;12.20;99.90
46676;DHT22;32412;51.478;5.694;2022-10-16T04:20:11;12.30;99.90
46676;DHT22;32412;51.478;5.694;2022-10-16T04:22:36;12.30;99.90
46676;DHT22;32412;51.478;5.694;2022-10-16T04:25:02;12.30;99.90
46676;DHT22;32412;51.478;5.694;2022-10-16T04:27:28;12.20;99.90
46676;DHT22;32412;51.478;5.694;2022-10-16T04:29:57;12.20;99.90
46676;DHT22;32412;51.478;5.694;2022-10-16T04:32:22;12.30;99.90
46676;DHT22;32412;51.478;5.694;2022-10-16T04:34:48;12.30;99.90
46676;DHT22;32412;51.478;5.694;2022-10-16T04:37:13;12.30;99.90
46676;DHT22;32412;51.478;5.694;2022-10-16T04:39:39;12.30;99.90
46676;DHT22;32412;51.478;5.694;2022-10-16T04:42:05;12.30;99.90
46676;DHT22;32412;51.478;5.694;2022-10-16T04:44:31;12.40;99.90
46676;DHT22;32412;51.478;5.694;2022-10-16T04:46:56;12.40;99.90
46676;DHT22;32412;51.478;5.694;2022-10-16T04:49:22;12.40;99.90
46676;DHT22;32412;51.478;5.694;2022-10-16T04:51:48;12.40;99.90
46676;DHT22;32412;51.478;5.694;2022-10-16T04:54:13;12.40;99.90
46676;DHT22;32412;51.478;5.694;2022-10-16T04:56:39;12.40;99.90
46676;DHT22;32412;51.478;5.694;2022-10-16T04:59:16;12.40;99.90
46676;DHT22;32412;51.478;5.694;2022-10-16T05:01:43;12.30;99.90
46676;DHT22;32412;51.478;5.694;2022-10-16T05:04:09;12.40;99.90
46676;DHT22;32412;51.478;5.694;2022-10-16T05:06:34;12.40;99.90
46676;DHT22;32412;51.478;5.694;2022-10-16T05:09:00;12.40;99.90
46676;DHT22;32412;51.478;5.694;2022-10-16T05:11:26;12.40;99.90
46676;DHT22;32412;51.478;5.694;2022-10-16T05:13:51;12.40;99.90
46676;DHT22;32412;51.478;5.694;2022-10-16T05:16:17;12.40;99.90
46676;DHT22;32412;51.478;5.694;2022-10-16T05:18:42;12.40;99.90
46676;DHT22;32412;51.478;5.694;2022-10-16T05:21:08;12.40;99.90
46676;DHT22;32412;51.478;5.694;2022-10-16T05:23:34;12.40;99.90
46676;DHT22;32412;51.478;5.694;2022-10-16T05:26:00;12.40;99.90
46676;DHT22;32412;51.478;5.694;2022-10-16T05:28:27;12.40;99.90
46676;DHT22;32412;51.478;5.694;2022-10-16T05:30:54;12.30;99.90
46676;DHT22;32412;51.478;5.694;2022-10-16T05:33:20;12.30;99.90
46676;DHT22;32412;51.478;5.694;2022-10-16T05:35:46;12.30;99.90
46676;DHT22;32412;51.478;5.694;2022-10-16T05:38:12;12.30;99.90
46676;DHT22;32412;51.478;5.694;2022-10-16T05:40:38;12.20;99.90
46676;DHT22;32412;51.478;5.694;2022-10-16T05:43:04;12.20;99.90
46676;DHT22;32412;51.478;5.694;2022-10-16T05:45:30;12.20;99.90
46676;DHT22;32412;51.478;5.694;2022-10-16T05:47:56;12.20;99.90
46676;DHT22;32412;51.478;5.694;2022-10-16T05:50:24;12.10;99.90
46676;DHT22;32412;51.478;5.694;2022-10-16T05:52:58;12.20;99.90
46676;DHT22;32412;51.478;5.694;2022-10-16T05:55:27;12.10;99.90
46676;DHT22;32412;51.478;5.694;2022-10-16T05:57:54;12.20;99.90
46676;DHT22;32412;51.478;5.694;2022-10-16T06:00:20;12.10;99.90
46676;DHT22;32412;51.478;5.694;2022-10-16T06:02:45;12.10;99.90
46676;DHT22;32412;51.478;5.694;2022-10-16T06:05:11;12.00;99.90
46676;DHT22;32412;51.478;5.694;2022-10-16T06:07:37;12.00;99.90
46676;DHT22;32412;51.478;5.694;2022-10-16T06:10:04;12.10;99.90
46676;DHT22;32412;51.478;5.694;2022-10-16T06:12:30;12.10;99.90
46676;DHT22;32412;51.478;5.694;2022-10-16T06:14:57;12.00;99.90
46676;DHT22;32412;51.478;5.694;2022-10-16T06:17:22;12.10;99.90
46676;DHT22;32412;51.478;5.694;2022-10-16T06:19:48;12.10;99.90
46676;DHT22;32412;51.478;5.694;2022-10-16T06:22:13;12.10;99.90
46676;DHT22;32412;51.478;5.694;2022-10-16T06:24:39;12.10;99.90
46676;DHT22;32412;51.478;5.694;2022-10-16T06:27:05;12.10;99.90
46676;DHT22;32412;51.478;5.694;2022-10-16T06:29:30;12.10;99.90
46676;DHT22;32412;51.478;5.694;2022-10-16T06:31:56;12.10;99.90
46676;DHT22;32412;51.478;5.694;2022-10-16T06:34:22;12.10;99.90
46676;DHT22;32412;51.478;5.694;2022-10-16T06:36:47;12.20;99.90
46676;DHT22;32412;51.478;5.694;2022-10-16T06:39:13;12.10;99.90
46676;DHT22;32412;51.478;5.694;2022-10-16T06:41:38;12.10;99.90
46676;DHT22;32412;51.478;5.694;2022-10-16T06:44:07;12.10;99.90
46676;DHT22;32412;51.478;5.694;2022-10-16T06:46:33;12.20;99.90
46676;DHT22;32412;51.478;5.694;2022-10-16T06:48:59;12.10;99.90
46676;DHT22;32412;51.478;5.694;2022-10-16T06:51:25;12.20;99.90
46676;DHT22;32412;51.478;5.694;2022-10-16T06:53:53;12.20;99.90
46676;DHT22;32412;51.478;5.694;2022-10-16T06:56:24;12.30;99.90
46676;DHT22;32412;51.478;5.694;2022-10-16T06:58:51;12.30;99.90
46676;DHT22;32412;51.478;5.694;2022-10-16T07:01:19;12.40;99.90
46676;DHT22;32412;51.478;5.694;2022-10-16T07:03:45;12.50;99.90
46676;DHT22;32412;51.478;5.694;2022-10-16T07:06:14;12.60;99.90
46676;DHT22;32412;51.478;5.694;2022-10-16T07:08:41;12.70;99.90
46676;DHT22;32412;51.478;5.694;2022-10-16T07:11:10;12.70;99.90
46676;DHT22;32412;51.478;5.694;2022-10-16T07:13:37;12.80;99.90
46676;DHT22;32412;51.478;5.694;2022-10-16T07:18:32;12.90;99.90
46676;DHT22;32412;51.478;5.694;2022-10-16T07:21:09;13.00;99.90
46676;DHT22;32412;51.478;5.694;2022-10-16T07:23:35;13.10;99.90
46676;DHT22;32412;51.478;5.694;2022-10-16T07:26:01;13.10;99.90
46676;DHT22;32412;51.478;5.694;2022-10-16T07:28:27;13.20;99.90
46676;DHT22;32412;51.478;5.694;2022-10-16T07:30:53;13.30;99.90
46676;DHT22;32412;51.478;5.694;2022-10-16T07:33:18;13.30;99.90
46676;DHT22;32412;51.478;5.694;2022-10-16T07:35:52;13.40;99.90
46676;DHT22;32412;51.478;5.694;2022-10-16T07:38:18;13.50;99.90
46676;DHT22;32412;51.478;5.694;2022-10-16T07:40:44;13.60;99.90
46676;DHT22;32412;51.478;5.694;2022-10-16T07:43:10;13.70;99.90
46676;DHT22;32412;51.478;5.694;2022-10-16T07:45:36;13.80;99.90
46676;DHT22;32412;51.478;5.694;2022-10-16T07:48:02;13.80;99.90
46676;DHT22;32412;51.478;5.694;2022-10-16T07:50:28;13.90;99.90
46676;DHT22;32412;51.478;5.694;2022-10-16T07:52:54;14.10;99.90
46676;DHT22;32412;51.478;5.694;2022-10-16T07:55:19;14.20;99.90
46676;DHT22;32412;51.478;5.694;2022-10-16T07:57:45;14.30;99.90
46676;DHT22;32412;51.478;5.694;2022-10-16T08:00:11;14.40;99.90
46676;DHT22;32412;51.478;5.694;2022-10-16T08:02:40;14.60;99.90
46676;DHT22;32412;51.478;5.694;2022-10-16T08:05:06;14.60;99.90
46676;DHT22;32412;51.478;5.694;2022-10-16T08:07:32;14.70;99.90
46676;DHT22;32412;51.478;5.694;2022-10-16T08:09:58;14.80;99.90
46676;DHT22;32412;51.478;5.694;2022-10-16T08:12:27;14.90;99.90
46676;DHT22;32412;51.478;5.694;2022-10-16T08:14:53;15.00;99.90
46676;DHT22;32412;51.478;5.694;2022-10-16T08:17:18;15.10;99.90
46676;DHT22;32412;51.478;5.694;2022-10-16T08:19:45;15.20;99.90
46676;DHT22;32412;51.478;5.694;2022-10-16T08:22:13;15.30;99.90
46676;DHT22;32412;51.478;5.694;2022-10-16T08:24:38;15.40;99.90
46676;DHT22;32412;51.478;5.694;2022-10-16T08:27:04;15.50;99.90
46676;DHT22;32412;51.478;5.694;2022-10-16T08:29:32;15.60;99.90
46676;DHT22;32412;51.478;5.694;2022-10-16T08:31:58;15.60;99.90
46676;DHT22;32412;51.478;5.694;2022-10-16T08:34:24;15.70;99.90
46676;DHT22;32412;51.478;5.694;2022-10-16T08:36:53;15.70;99.90
46676;DHT22;32412;51.478;5.694;2022-10-16T08:39:19;15.80;99.90
46676;DHT22;32412;51.478;5.694;2022-10-16T08:52:19;16.10;99.90
46676;DHT22;32412;51.478;5.694;2022-10-16T08:54:48;16.10;99.90
46676;DHT22;32412;51.478;5.694;2022-10-16T08:57:24;16.20;99.90
46676;DHT22;32412;51.478;5.694;2022-10-16T08:59:51;16.30;99.90
46676;DHT22;32412;51.478;5.694;2022-10-16T09:16:27;17.20;99.90
46676;DHT22;32412;51.478;5.694;2022-10-16T09:18:58;17.50;99.90
46676;DHT22;32412;51.478;5.694;2022-10-16T09:21:30;17.70;99.90
46676;DHT22;32412;51.478;5.694;2022-10-16T09:24:16;18.20;99.90
46676;DHT22;32412;51.478;5.694;2022-10-16T09:26:43;18.60;99.90
46676;DHT22;32412;51.478;5.694;2022-10-16T09:29:14;18.90;99.90
46676;DHT22;32412;51.478;5.694;2022-10-16T09:31:41;19.70;99.90
46676;DHT22;32412;51.478;5.694;2022-10-16T09:34:31;20.10;99.90
46676;DHT22;32412;51.478;5.694;2022-10-16T09:36:59;20.20;99.90
46676;DHT22;32412;51.478;5.694;2022-10-16T09:39:25;20.90;99.90
46676;DHT22;32412;51.478;5.694;2022-10-16T09:41:51;20.60;99.90
46676;DHT22;32412;51.478;5.694;2022-10-16T09:44:27;21.20;99.90
46676;DHT22;32412;51.478;5.694;2022-10-16T09:47:14;22.20;99.90
46676;DHT22;32412;51.478;5.694;2022-10-16T09:49:59;22.20;99.90
46676;DHT22;32412;51.478;5.694;2022-10-16T09:52:28;22.60;99.90
46676;DHT22;32412;51.478;5.694;2022-10-16T09:55:00;21.90;99.90
46676;DHT22;32412;51.478;5.694;2022-10-16T09:57:27;22.30;99.90
46676;DHT22;32412;51.478;5.694;2022-10-16T09:59:57;22.70;99.90
46676;DHT22;32412;51.478;5.694;2022-10-16T10:02:30;22.90;99.90
46676;DHT22;32412;51.478;5.694;2022-10-16T10:04:56;22.00;99.90
46676;DHT22;32412;51.478;5.694;2022-10-16T10:07:27;22.40;99.90
46676;DHT22;32412;51.478;5.694;2022-10-16T10:09:54;23.40;99.90
46676;DHT22;32412;51.478;5.694;2022-10-16T10:12:24;24.00;99.90
46676;DHT22;32412;51.478;5.694;2022-10-16T10:14:55;23.40;99.90
46676;DHT22;32412;51.478;5.694;2022-10-16T10:17:27;23.20;99.90
46676;DHT22;32412;51.478;5.694;2022-10-16T10:22:40;23.70;99.90
46676;DHT22;32412;51.478;5.694;2022-10-16T10:38:50;24.20;99.90
46676;DHT22;32412;51.478;5.694;2022-10-16T10:46:41;25.50;99.90
46676;DHT22;32412;51.478;5.694;2022-10-16T10:49:29;25.80;99.90
46676;DHT22;32412;51.478;5.694;2022-10-16T10:57:55;24.20;99.90
46676;DHT22;32412;51.478;5.694;2022-10-16T11:00:38;25.00;99.90
46676;DHT22;32412;51.478;5.694;2022-10-16T11:05:43;24.00;99.90
46676;DHT22;32412;51.478;5.694;2022-10-16T11:10:57;25.30;99.90
46676;DHT22;32412;51.478;5.694;2022-10-16T11:16:05;25.70;99.90
46676;DHT22;32412;51.478;5.694;2022-10-16T11:21:16;24.00;99.90
46676;DHT22;32412;51.478;5.694;2022-10-16T11:24:00;25.00;99.90
46676;DHT22;32412;51.478;5.694;2022-10-16T11:26:32;26.50;99.90
46676;DHT22;32412;51.478;5.694;2022-10-16T11:29:00;27.00;99.10
46676;DHT22;32412;51.478;5.694;2022-10-16T11:31:55;27.20;98.70
46676;DHT22;32412;51.478;5.694;2022-10-16T11:34:28;27.00;98.30
46676;DHT22;32412;51.478;5.694;2022-10-16T11:39:27;27.60;97.40
46676;DHT22;32412;51.478;5.694;2022-10-16T11:42:10;27.30;97.80
46676;DHT22;32412;51.478;5.694;2022-10-16T11:44:57;26.10;98.40
46676;DHT22;32412;51.478;5.694;2022-10-16T11:55:21;25.70;99.60
46676;DHT22;32412;51.478;5.694;2022-10-16T12:00:40;26.80;98.60
46676;DHT22;32412;51.478;5.694;2022-10-16T12:03:20;27.70;98.50
46676;DHT22;32412;51.478;5.694;2022-10-16T12:08:51;28.80;96.50
46676;DHT22;32412;51.478;5.694;2022-10-16T12:11:33;29.50;94.90
46676;DHT22;32412;51.478;5.694;2022-10-16T12:16:57;28.30;95.10
46676;DHT22;32412;51.478;5.694;2022-10-16T12:19:29;27.70;96.60
46676;DHT22;32412;51.478;5.694;2022-10-16T12:22:02;26.80;96.60
46676;DHT22;32412;51.478;5.694;2022-10-16T12:24:33;25.90;98.10
46676;DHT22;32412;51.478;5.694;2022-10-16T12:26:59;24.70;98.40
46676;DHT22;32412;51.478;5.694;2022-10-16T12:32:05;23.40;99.90
46676;DHT22;32412;51.478;5.694;2022-10-16T12:34:41;22.80;99.90
46676;DHT22;32412;51.478;5.694;2022-10-16T12:37:31;22.70;99.90
46676;DHT22;32412;51.478;5.694;2022-10-16T12:39:59;22.30;99.90
46676;DHT22;32412;51.478;5.694;2022-10-16T12:44:55;21.30;99.90
46676;DHT22;32412;51.478;5.694;2022-10-16T12:47:23;20.70;99.90
46676;DHT22;32412;51.478;5.694;2022-10-16T12:49:54;20.70;99.90
46676;DHT22;32412;51.478;5.694;2022-10-16T12:55:02;20.30;99.90
46676;DHT22;32412;51.478;5.694;2022-10-16T13:00:41;19.90;99.90
46676;DHT22;32412;51.478;5.694;2022-10-16T13:08:53;20.20;99.90
46676;DHT22;32412;51.478;5.694;2022-10-16T13:11:35;20.40;99.90
46676;DHT22;32412;51.478;5.694;2022-10-16T13:19:42;21.20;99.90
46676;DHT22;32412;51.478;5.694;2022-10-16T13:22:24;21.50;99.90
46676;DHT22;32412;51.478;5.694;2022-10-16T13:25:19;21.50;99.90
46676;DHT22;32412;51.478;5.694;2022-10-16T13:28:04;21.40;99.90
46676;DHT22;32412;51.478;5.694;2022-10-16T13:33:15;22.20;99.90
46676;DHT22;32412;51.478;5.694;2022-10-16T13:35:56;22.50;99.90
46676;DHT22;32412;51.478;5.694;2022-10-16T13:38:25;22.40;99.90
46676;DHT22;32412;51.478;5.694;2022-10-16T13:40:53;22.40;99.90
46676;DHT22;32412;51.478;5.694;2022-10-16T13:44:07;21.90;99.90
46676;DHT22;32412;51.478;5.694;2022-10-16T13:46:16;21.40;99.90
46676;DHT22;32412;51.478;5.694;2022-10-16T13:48:42;21.00;99.90
46676;DHT22;32412;51.478;5.694;2022-10-16T13:51:16;20.90;99.90
46676;DHT22;32412;51.478;5.694;2022-10-16T13:53:43;20.80;99.90
46676;DHT22;32412;51.478;5.694;2022-10-16T13:56:15;20.80;99.90
46676;DHT22;32412;51.478;5.694;2022-10-16T13:58:41;20.70;99.90
46676;DHT22;32412;51.478;5.694;2022-10-16T14:01:20;20.60;99.90
46676;DHT22;32412;51.478;5.694;2022-10-16T14:03:49;20.40;99.90
46676;DHT22;32412;51.478;5.694;2022-10-16T14:06:18;20.20;99.90
46676;DHT22;32412;51.478;5.694;2022-10-16T14:08:57;20.00;99.90
46676;DHT22;32412;51.478;5.694;2022-10-16T14:11:24;19.90;99.90
46676;DHT22;32412;51.478;5.694;2022-10-16T14:13:51;19.90;99.90
46676;DHT22;32412;51.478;5.694;2022-10-16T14:16:27;19.70;99.90
46676;DHT22;32412;51.478;5.694;2022-10-16T14:19:04;19.70;99.90
46676;DHT22;32412;51.478;5.694;2022-10-16T14:21:33;19.70;99.90
46676;DHT22;32412;51.478;5.694;2022-10-16T14:23:59;19.60;99.90
46676;DHT22;32412;51.478;5.694;2022-10-16T14:26:28;19.50;99.90
46676;DHT22;32412;51.478;5.694;2022-10-16T14:29:11;19.30;99.90
46676;DHT22;32412;51.478;5.694;2022-10-16T14:31:38;19.30;99.90
46676;DHT22;32412;51.478;5.694;2022-10-16T14:34:30;19.30;99.90
46676;DHT22;32412;51.478;5.694;2022-10-16T14:37:00;19.20;99.90
46676;DHT22;32412;51.478;5.694;2022-10-16T14:39:28;19.30;99.90
46676;DHT22;32412;51.478;5.694;2022-10-16T14:41:56;19.20;99.90
46676;DHT22;32412;51.478;5.694;2022-10-16T14:44:27;19.10;99.90
46676;DHT22;32412;51.478;5.694;2022-10-16T14:46:53;19.10;99.90
46676;DHT22;32412;51.478;5.694;2022-10-16T14:49:20;19.10;99.90
46676;DHT22;32412;51.478;5.694;2022-10-16T14:51:47;19.20;99.90
46676;DHT22;32412;51.478;5.694;2022-10-16T14:54:15;19.30;99.90
46676;DHT22;32412;51.478;5.694;2022-10-16T14:56:55;19.60;99.90
46676;DHT22;32412;51.478;5.694;2022-10-16T14:59:40;19.70;99.90
46676;DHT22;32412;51.478;5.694;2022-10-16T15:02:35;19.70;99.90
46676;DHT22;32412;51.478;5.694;2022-10-16T15:05:18;19.70;99.90
46676;DHT22;32412;51.478;5.694;2022-10-16T15:07:45;19.60;99.90
46676;DHT22;32412;51.478;5.694;2022-10-16T15:10:12;19.50;99.90
46676;DHT22;32412;51.478;5.694;2022-10-16T15:12:38;19.40;99.90
46676;DHT22;32412;51.478;5.694;2022-10-16T15:17:48;19.20;99.90
46676;DHT22;32412;51.478;5.694;2022-10-16T15:20:14;19.10;99.90
46676;DHT22;32412;51.478;5.694;2022-10-16T15:22:40;19.00;99.90
46676;DHT22;32412;51.478;5.694;2022-10-16T15:28:23;18.80;99.90
46676;DHT22;32412;51.478;5.694;2022-10-16T15:30:54;18.80;99.90
46676;DHT22;32412;51.478;5.694;2022-10-16T15:33:21;18.80;99.90
46676;DHT22;32412;51.478;5.694;2022-10-16T15:35:52;18.60;99.90
46676;DHT22;32412;51.478;5.694;2022-10-16T15:38:19;18.60;99.90
46676;DHT22;32412;51.478;5.694;2022-10-16T15:40:46;18.50;99.90
46676;DHT22;32412;51.478;5.694;2022-10-16T15:43:12;18.50;99.90
46676;DHT22;32412;51.478;5.694;2022-10-16T15:45:38;18.50;99.90
46676;DHT22;32412;51.478;5.694;2022-10-16T15:48:03;18.40;99.90
46676;DHT22;32412;51.478;5.694;2022-10-16T15:50:30;18.40;99.90
46676;DHT22;32412;51.478;5.694;2022-10-16T15:52:56;18.40;99.90
46676;DHT22;32412;51.478;5.694;2022-10-16T15:55:21;18.40;99.90
46676;DHT22;32412;51.478;5.694;2022-10-16T15:57:47;18.30;99.90
46676;DHT22;32412;51.478;5.694;2022-10-16T16:00:15;18.20;99.90
46676;DHT22;32412;51.478;5.694;2022-10-16T16:02:42;18.10;99.90
46676;DHT22;32412;51.478;5.694;2022-10-16T16:05:10;18.00;99.90
46676;DHT22;32412;51.478;5.694;2022-10-16T16:07:37;18.00;99.90
46676;DHT22;32412;51.478;5.694;2022-10-16T16:10:04;17.90;99.90
46676;DHT22;32412;51.478;5.694;2022-10-16T16:12:30;17.90;99.90
46676;DHT22;32412;51.478;5.694;2022-10-16T16:14:58;17.80;99.90
46676;DHT22;32412;51.478;5.694;2022-10-16T16:17:23;17.70;99.90
46676;DHT22;32412;51.478;5.694;2022-10-16T16:19:50;17.50;99.90
46676;DHT22;32412;51.478;5.694;2022-10-16T16:22:15;17.30;99.90
46676;DHT22;32412;51.478;5.694;2022-10-16T16:24:41;17.20;99.90
46676;DHT22;32412;51.478;5.694;2022-10-16T16:27:09;17.20;99.90
46676;DHT22;32412;51.478;5.694;2022-10-16T16:29:35;17.10;99.90
46676;DHT22;32412;51.478;5.694;2022-10-16T16:32:01;17.00;99.90
46676;DHT22;32412;51.478;5.694;2022-10-16T16:34:28;16.90;99.90
46676;DHT22;32412;51.478;5.694;2022-10-16T16:36:54;16.80;99.90
46676;DHT22;32412;51.478;5.694;2022-10-16T16:39:21;16.70;99.90
46676;DHT22;32412;51.478;5.694;2022-10-16T16:41:47;16.70;99.90
46676;DHT22;32412;51.478;5.694;2022-10-16T16:44:13;16.60;99.90
46676;DHT22;32412;51.478;5.694;2022-10-16T16:46:40;16.60;99.90
46676;DHT22;32412;51.478;5.694;2022-10-16T16:49:10;16.50;99.90
46676;DHT22;32412;51.478;5.694;2022-10-16T16:51:37;16.40;99.90
46676;DHT22;32412;51.478;5.694;2022-10-16T16:54:03;16.50;99.90
46676;DHT22;32412;51.478;5.694;2022-10-16T16:56:29;16.40;99.90
46676;DHT22;32412;51.478;5.694;2022-10-16T16:58:55;16.40;99.90
46676;DHT22;32412;51.478;5.694;2022-10-16T17:01:23;16.40;99.90
46676;DHT22;32412;51.478;5.694;2022-10-16T17:03:51;16.30;99.90
46676;DHT22;32412;51.478;5.694;2022-10-16T17:06:18;16.30;99.90
46676;DHT22;32412;51.478;5.694;2022-10-16T17:08:44;16.30;99.90
46676;DHT22;32412;51.478;5.694;2022-10-16T17:11:21;16.20;99.90
46676;DHT22;32412;51.478;5.694;2022-10-16T17:13:49;16.20;99.90
46676;DHT22;32412;51.478;5.694;2022-10-16T17:16:16;16.20;99.90
46676;DHT22;32412;51.478;5.694;2022-10-16T17:18:42;16.20;99.90
46676;DHT22;32412;51.478;5.694;2022-10-16T17:21:09;16.20;99.90
46676;DHT22;32412;51.478;5.694;2022-10-16T17:23:36;16.20;99.90
46676;DHT22;32412;51.478;5.694;2022-10-16T17:26:13;16.30;99.90
46676;DHT22;32412;51.478;5.694;2022-10-16T17:28:40;16.20;99.90
46676;DHT22;32412;51.478;5.694;2022-10-16T17:31:13;16.20;99.90
46676;DHT22;32412;51.478;5.694;2022-10-16T17:33:39;16.20;99.90
46676;DHT22;32412;51.478;5.694;2022-10-16T17:36:05;16.20;99.90
46676;DHT22;32412;51.478;5.694;2022-10-16T17:38:32;16.10;99.90
46676;DHT22;32412;51.478;5.694;2022-10-16T17:40:58;16.00;99.90
46676;DHT22;32412;51.478;5.694;2022-10-16T17:43:34;16.10;99.90
46676;DHT22;32412;51.478;5.694;2022-10-16T17:46:01;16.00;99.90
46676;DHT22;32412;51.478;5.694;2022-10-16T17:48:27;15.90;99.90
46676;DHT22;32412;51.478;5.694;2022-10-16T17:50:53;15.80;99.90
46676;DHT22;32412;51.478;5.694;2022-10-16T17:53:18;15.80;99.90
46676;DHT22;32412;51.478;5.694;2022-10-16T17:55:44;15.80;99.90